Time;durP1;ratioP1;P1;durP2;ratioP2;P2;SDS_P1;SDS_P2;PMS_P1;PMS_P2;Temp;Humidity;BMP_temperature;BMP_pressure;BME280_temperature;BME280_humidity;BME280_pressure;Samples;Min_cycle;Max_cycle;Signal;HPM_P1;HPM_P2
2023/06/01 00:00:01;;;;;;;6.70;3.53;;;11.90;99.90;;;;;;5015860;28;20045;-78
2023/06/01 00:02:49;;;;;;;11.65;3.10;;;11.90;99.90;;;;;;5016596;28;20116;-78
2023/06/01 00:05:35;;;;;;;12.43;3.53;;;11.90;99.90;;;;;;4998769;28;20513;-77
2023/06/01 00:08:22;;;;;;;11.63;3.38;;;11.80;99.90;;;;;;5016821;28;20046;-78
2023/06/01 00:11:09;;;;;;;13.65;4.07;;;11.80;99.90;;;;;;4998769;28;20414;-80
2023/06/01 00:13:55;;;;;;;9.75;3.80;;;11.80;99.90;;;;;;4998950;28;20061;-79
2023/06/01 00:16:42;;;;;;;13.05;3.83;;;11.80;99.90;;;;;;5016383;28;20061;-79
2023/06/01 00:19:28;;;;;;;14.40;3.97;;;11.90;99.90;;;;;;5014993;28;20041;-78
2023/06/01 00:22:15;;;;;;;14.20;4.35;;;11.80;99.90;;;;;;4977063;28;20053;-78
2023/06/01 00:25:01;;;;;;;16.67;4.65;;;11.80;99.90;;;;;;4999185;28;20061;-77
2023/06/01 00:27:47;;;;;;;19.83;5.25;;;11.80;99.90;;;;;;5015812;28;20054;-79
2023/06/01 00:30:34;;;;;;;10.73;3.53;;;11.80;99.90;;;;;;5001763;28;20050;-78
2023/06/01 00:33:20;;;;;;;16.50;4.50;;;11.80;99.90;;;;;;5015808;28;20136;-78
2023/06/01 00:36:07;;;;;;;11.93;4.78;;;11.80;99.90;;;;;;5015782;28;20192;-78
2023/06/01 00:38:53;;;;;;;13.48;5.05;;;11.80;99.90;;;;;;5015651;28;20068;-79
2023/06/01 00:41:39;;;;;;;10.35;4.18;;;11.80;99.90;;;;;;5016316;28;20054;-79
2023/06/01 00:44:25;;;;;;;9.63;4.00;;;11.80;99.90;;;;;;4997845;28;20050;-79
2023/06/01 00:47:12;;;;;;;17.88;5.70;;;11.80;99.90;;;;;;5016790;28;20050;-78
2023/06/01 00:49:58;;;;;;;12.82;3.80;;;11.80;99.90;;;;;;4996248;28;20104;-80
2023/06/01 00:52:47;;;;;;;13.23;3.55;;;11.80;99.90;;;;;;5011535;28;20062;-78
2023/06/01 00:55:34;;;;;;;9.93;4.03;;;11.80;99.90;;;;;;4981383;28;20522;-79
2023/06/01 00:58:21;;;;;;;12.48;4.82;;;11.90;99.90;;;;;;5013188;28;20130;-80
2023/06/01 01:01:07;;;;;;;16.88;3.97;;;11.80;99.90;;;;;;5012471;28;20046;-79
2023/06/01 01:03:57;;;;;;;9.93;2.92;;;11.90;99.90;;;;;;5012128;28;20074;-79
2023/06/01 01:07:11;;;;;;;7.53;2.90;;;11.80;99.90;;;;;;5011937;28;20046;-79
2023/06/01 01:10:18;;;;;;;10.75;3.30;;;11.90;99.90;;;;;;4998473;28;20100;-79
2023/06/01 01:13:07;;;;;;;6.90;2.90;;;11.80;99.90;;;;;;5013068;28;20112;-80
2023/06/01 01:16:17;;;;;;;10.90;3.45;;;11.80;99.90;;;;;;5011567;28;20054;-79
2023/06/01 01:19:26;;;;;;;9.50;3.13;;;11.80;99.90;;;;;;4996557;28;20108;-79
2023/06/01 01:22:41;;;;;;;9.75;3.85;;;11.80;99.90;;;;;;5011267;28;20046;-80
2023/06/01 01:25:42;;;;;;;15.70;3.03;;;11.80;99.90;;;;;;4951269;28;20097;-78
2023/06/01 01:28:35;;;;;;;11.02;3.30;;;11.80;99.90;;;;;;5012447;28;20050;-78
2023/06/01 01:31:26;;;;;;;6.22;2.15;;;11.80;99.90;;;;;;4994457;28;20050;-78
2023/06/01 01:34:12;;;;;;;15.00;3.10;;;11.70;99.90;;;;;;5011587;28;20049;-78
2023/06/01 01:36:59;;;;;;;9.55;2.63;;;11.70;99.90;;;;;;5011986;28;20425;-79
2023/06/01 01:39:45;;;;;;;12.95;2.85;;;11.70;99.90;;;;;;4993420;28;20141;-79
2023/06/01 01:42:31;;;;;;;8.32;2.65;;;11.70;99.90;;;;;;5011253;28;20124;-76
2023/06/01 01:45:18;;;;;;;9.93;2.72;;;11.70;99.90;;;;;;4987268;28;20054;-77
2023/06/01 01:48:18;;;;;;;9.50;2.78;;;11.70;99.90;;;;;;4997513;28;20124;-78
2023/06/01 01:51:10;;;;;;;8.60;2.80;;;11.70;99.90;;;;;;5011818;28;20049;-78
2023/06/01 01:53:58;;;;;;;10.43;3.03;;;11.70;99.90;;;;;;4994248;28;20097;-78
2023/06/01 01:56:46;;;;;;;9.02;2.78;;;11.70;99.90;;;;;;4993739;28;20081;-78
2023/06/01 01:59:33;;;;;;;14.13;4.15;;;11.70;99.90;;;;;;5011706;28;20053;-77
2023/06/01 02:02:19;;;;;;;9.77;2.55;;;11.70;99.90;;;;;;5010129;28;20133;-79
2023/06/01 02:05:06;;;;;;;12.25;2.80;;;11.70;99.90;;;;;;4994142;28;20058;-78
2023/06/01 02:07:52;;;;;;;10.68;2.90;;;11.70;99.90;;;;;;4994768;28;20054;-77
2023/06/01 02:10:38;;;;;;;21.92;2.92;;;11.70;99.90;;;;;;5012231;28;20572;-78
2023/06/01 02:13:24;;;;;;;12.32;3.22;;;11.70;99.90;;;;;;4994095;28;20061;-77
2023/06/01 02:16:10;;;;;;;9.30;2.20;;;11.80;99.90;;;;;;5010229;28;20397;-77
2023/06/01 02:18:59;;;;;;;12.93;3.00;;;11.70;99.90;;;;;;4997764;28;20397;-78
2023/06/01 02:21:45;;;;;;;8.10;2.53;;;11.70;99.90;;;;;;5012217;28;20046;-78
2023/06/01 02:24:31;;;;;;;8.30;2.28;;;11.70;99.90;;;;;;5011855;28;20542;-78
2023/06/01 02:27:18;;;;;;;7.88;3.28;;;11.70;99.90;;;;;;5026738;28;20058;-77
2023/06/01 02:30:06;;;;;;;10.40;2.83;;;11.70;99.90;;;;;;5009718;28;20409;-77
2023/06/01 02:32:52;;;;;;;9.82;2.85;;;11.80;99.90;;;;;;5011604;28;20038;-79
2023/06/01 02:35:39;;;;;;;9.07;3.33;;;11.80;99.90;;;;;;4992086;28;20077;-78
2023/06/01 02:38:25;;;;;;;8.93;2.38;;;11.80;99.90;;;;;;5010813;28;20434;-78
2023/06/01 02:41:12;;;;;;;9.15;2.35;;;11.80;99.90;;;;;;4996476;28;20049;-78
2023/06/01 02:43:58;;;;;;;10.80;2.58;;;11.80;99.90;;;;;;4993364;28;20064;-79
2023/06/01 02:46:44;;;;;;;12.25;3.00;;;11.80;99.90;;;;;;5010946;28;20054;-78
2023/06/01 02:49:30;;;;;;;8.82;2.53;;;11.80;99.90;;;;;;4996295;28;20126;-78
2023/06/01 02:52:16;;;;;;;8.73;2.80;;;11.70;99.90;;;;;;5011135;28;20054;-77
2023/06/01 02:55:03;;;;;;;8.38;2.97;;;11.70;99.90;;;;;;5010247;28;20137;-79
2023/06/01 02:57:49;;;;;;;12.38;3.20;;;11.80;99.90;;;;;;5010176;28;20062;-78
2023/06/01 03:00:36;;;;;;;12.77;2.90;;;11.70;99.90;;;;;;4995708;28;20057;-78
2023/06/01 03:03:22;;;;;;;15.02;3.55;;;11.80;99.90;;;;;;5010449;28;20054;-77
2023/06/01 03:06:08;;;;;;;9.75;4.10;;;11.80;99.90;;;;;;4993531;28;20050;-79
2023/06/01 03:08:54;;;;;;;8.27;3.15;;;11.70;99.90;;;;;;5009452;28;20379;-78
2023/06/01 03:11:41;;;;;;;11.15;3.33;;;11.80;99.90;;;;;;5009833;28;20056;-78
2023/06/01 03:14:27;;;;;;;10.63;2.97;;;11.70;99.90;;;;;;4991593;28;20053;-77
2023/06/01 03:17:13;;;;;;;8.40;2.58;;;11.70;99.90;;;;;;4995799;28;20046;-77
2023/06/01 03:20:00;;;;;;;10.32;3.55;;;11.80;99.90;;;;;;5009807;28;20397;-76
2023/06/01 03:22:46;;;;;;;9.35;3.33;;;11.70;99.90;;;;;;4995279;28;20128;-77
2023/06/01 03:25:33;;;;;;;14.90;4.25;;;11.70;99.90;;;;;;5009540;28;20042;-77
2023/06/01 03:28:19;;;;;;;7.95;3.00;;;11.70;99.90;;;;;;4993088;28;20060;-77
2023/06/01 03:31:07;;;;;;;9.73;3.92;;;11.80;99.90;;;;;;5010440;28;20509;-77
2023/06/01 03:33:53;;;;;;;13.55;4.38;;;11.80;99.90;;;;;;4996510;28;20049;-77
2023/06/01 03:36:39;;;;;;;10.13;3.20;;;11.80;99.90;;;;;;5010562;28;20112;-78
2023/06/01 03:39:25;;;;;;;9.32;2.60;;;11.80;99.90;;;;;;5010258;28;20042;-78
2023/06/01 03:42:11;;;;;;;9.88;3.42;;;11.70;99.90;;;;;;5011004;28;20452;-77
2023/06/01 03:44:57;;;;;;;10.38;3.70;;;11.80;99.90;;;;;;4996424;28;20049;-78
2023/06/01 03:47:44;;;;;;;10.20;3.70;;;11.80;99.90;;;;;;4979305;28;20103;-79
2023/06/01 03:50:30;;;;;;;8.02;3.55;;;11.70;99.90;;;;;;5010270;28;20107;-77
2023/06/01 03:53:16;;;;;;;7.95;2.60;;;11.70;99.90;;;;;;4993539;28;20046;-78
2023/06/01 03:56:02;;;;;;;7.90;2.88;;;11.70;99.90;;;;;;4995996;28;20061;-77
2023/06/01 03:58:50;;;;;;;11.85;2.50;;;11.60;99.90;;;;;;5009617;28;20060;-77
2023/06/01 04:01:39;;;;;;;9.07;3.45;;;11.70;99.90;;;;;;5010111;28;20476;-77
2023/06/01 04:04:28;;;;;;;7.93;2.55;;;11.70;99.90;;;;;;5009764;28;20058;-78
2023/06/01 04:07:18;;;;;;;9.43;2.92;;;11.70;99.90;;;;;;4991401;28;20053;-78
2023/06/01 04:10:05;;;;;;;12.02;2.92;;;11.70;99.90;;;;;;5008961;28;20050;-79
2023/06/01 04:12:51;;;;;;;9.18;2.42;;;11.70;99.90;;;;;;5010136;28;20046;-77
2023/06/01 04:15:37;;;;;;;8.73;2.92;;;11.70;99.90;;;;;;4991452;28;20092;-79
2023/06/01 04:18:23;;;;;;;7.15;2.50;;;11.80;99.90;;;;;;5450817;23;20029;31
2023/06/01 04:21:10;;;;;;;8.15;1.95;;;11.80;99.90;;;;;;4948762;29;20051;-78
2023/06/01 04:23:55;;;;;;;9.63;3.53;;;11.70;99.90;;;;;;4952506;28;20109;-78
2023/06/01 04:26:42;;;;;;;9.05;2.67;;;11.70;99.90;;;;;;4953640;29;20146;-78
2023/06/01 04:29:28;;;;;;;8.25;4.20;;;11.70;99.90;;;;;;4953869;29;20118;-78
2023/06/01 04:32:21;;;;;;;10.18;3.15;;;11.80;99.90;;;;;;4954135;28;20063;-77
2023/06/01 04:35:08;;;;;;;13.07;2.92;;;11.80;99.90;;;;;;4955122;28;20443;-79
2023/06/01 04:37:54;;;;;;;13.05;3.03;;;11.80;99.90;;;;;;4969158;28;20059;-78
2023/06/01 04:40:41;;;;;;;9.40;2.72;;;11.80;99.90;;;;;;4955371;28;20102;-77
2023/06/01 04:43:27;;;;;;;9.32;2.88;;;11.80;99.90;;;;;;4955357;28;20066;-78
2023/06/01 04:46:14;;;;;;;17.63;3.05;;;11.90;99.90;;;;;;4955114;29;20527;-78
2023/06/01 04:49:00;;;;;;;8.80;2.40;;;11.90;99.90;;;;;;4955133;28;20050;-78
2023/06/01 04:51:51;;;;;;;12.70;3.38;;;11.90;99.90;;;;;;4956189;28;20043;-77
2023/06/01 04:54:37;;;;;;;10.35;2.72;;;11.90;99.90;;;;;;4956058;28;20129;-77
2023/06/01 04:57:23;;;;;;;12.75;2.80;;;11.90;99.90;;;;;;4955672;28;20485;-77
2023/06/01 05:00:13;;;;;;;7.38;2.97;;;11.90;99.90;;;;;;4955714;28;20047;-78
2023/06/01 05:03:00;;;;;;;10.75;4.00;;;11.90;99.90;;;;;;4954253;28;20111;-78
2023/06/01 05:05:46;;;;;;;9.23;2.80;;;11.90;99.90;;;;;;4955828;28;20051;-77
2023/06/01 05:08:33;;;;;;;9.02;2.42;;;11.90;99.90;;;;;;4956789;28;20066;-78
2023/06/01 05:11:19;;;;;;;8.85;3.58;;;11.90;99.90;;;;;;4954920;29;20087;-78
2023/06/01 05:14:05;;;;;;;8.52;2.30;;;11.90;99.90;;;;;;4955431;28;20047;-78
2023/06/01 05:16:51;;;;;;;13.55;3.10;;;11.90;99.90;;;;;;4954602;28;20051;-77
2023/06/01 05:19:37;;;;;;;7.82;2.50;;;12.00;99.90;;;;;;4966421;28;20055;-78
2023/06/01 05:22:24;;;;;;;7.57;2.15;;;12.00;99.90;;;;;;4955800;28;20047;-77
2023/06/01 05:25:10;;;;;;;7.82;3.13;;;12.00;99.90;;;;;;4956027;28;20051;-78
2023/06/01 05:27:56;;;;;;;8.77;2.70;;;12.00;99.90;;;;;;4952906;29;20058;-77
2023/06/01 05:30:43;;;;;;;12.90;2.50;;;12.00;99.90;;;;;;4954914;28;20043;-78
2023/06/01 05:33:29;;;;;;;11.45;2.63;;;12.00;99.90;;;;;;4955403;28;20062;-78
2023/06/01 05:36:15;;;;;;;13.80;2.42;;;12.00;99.90;;;;;;4954964;28;20435;-78
2023/06/01 05:39:01;;;;;;;13.80;4.18;;;12.00;99.90;;;;;;4955961;28;20054;-77
2023/06/01 05:41:47;;;;;;;7.93;2.10;;;12.00;99.90;;;;;;4954639;29;20138;-77
2023/06/01 05:44:33;;;;;;;9.57;2.22;;;12.00;99.90;;;;;;4954851;28;20656;-78
2023/06/01 05:47:19;;;;;;;8.10;1.77;;;12.00;99.90;;;;;;4953799;29;20055;-79
2023/06/01 05:50:06;;;;;;;6.47;1.77;;;12.00;99.90;;;;;;4953494;28;20062;-79
2023/06/01 05:52:53;;;;;;;7.43;2.00;;;12.00;99.90;;;;;;4952775;29;20134;-79
2023/06/01 05:55:39;;;;;;;8.77;2.17;;;12.00;99.90;;;;;;4954845;28;20043;-78
2023/06/01 05:58:25;;;;;;;9.05;2.42;;;12.00;99.90;;;;;;4952169;29;20125;-79
2023/06/01 06:01:11;;;;;;;6.05;1.42;;;12.00;99.90;;;;;;4953477;29;20051;-79
2023/06/01 06:03:58;;;;;;;11.05;2.72;;;12.00;99.90;;;;;;4937722;28;20114;-79
2023/06/01 06:06:44;;;;;;;7.05;2.42;;;12.10;99.90;;;;;;4954689;28;20055;-79
2023/06/01 06:09:30;;;;;;;5.90;1.70;;;12.00;99.90;;;;;;4951917;29;20051;-78
2023/06/01 06:12:16;;;;;;;5.32;1.48;;;12.00;99.90;;;;;;4953011;28;20047;-79
2023/06/01 06:15:04;;;;;;;7.82;1.65;;;12.10;99.90;;;;;;4953647;28;20055;-79
2023/06/01 06:17:50;;;;;;;10.63;1.85;;;12.10;99.90;;;;;;4953174;29;20086;-78
2023/06/01 06:20:36;;;;;;;6.35;2.15;;;12.10;99.90;;;;;;4952169;28;20560;-78
2023/06/01 06:23:23;;;;;;;6.07;1.75;;;12.10;99.90;;;;;;4954143;28;20047;-79
2023/06/01 06:26:12;;;;;;;7.97;1.60;;;12.20;99.90;;;;;;4936188;29;20102;-79
2023/06/01 06:28:58;;;;;;;6.32;1.55;;;12.20;99.90;;;;;;4953567;28;20047;-78
2023/06/01 06:31:45;;;;;;;11.85;1.98;;;12.20;99.90;;;;;;4953864;29;20129;-78
2023/06/01 06:34:35;;;;;;;9.10;1.48;;;12.30;99.90;;;;;;4936935;28;20051;-78
2023/06/01 06:37:21;;;;;;;7.40;2.17;;;12.20;99.90;;;;;;4953414;28;20063;-81
2023/06/01 06:40:08;;;;;;;12.18;2.53;;;12.20;99.90;;;;;;4953827;28;20047;-79
2023/06/01 06:42:54;;;;;;;6.20;1.50;;;12.20;99.90;;;;;;4953785;28;20055;-79
2023/06/01 06:45:41;;;;;;;5.38;1.13;;;12.20;99.90;;;;;;4954086;28;20097;-79
2023/06/01 06:48:27;;;;;;;3.53;1.00;;;12.30;99.90;;;;;;4952891;28;20052;-79
2023/06/01 06:51:13;;;;;;;6.93;1.35;;;12.30;99.90;;;;;;4952964;28;20047;-78
2023/06/01 06:54:02;;;;;;;6.13;1.40;;;12.40;99.90;;;;;;4952613;29;20407;-78
2023/06/01 06:56:48;;;;;;;4.28;0.82;;;12.40;99.90;;;;;;4923427;29;20062;-79
2023/06/01 06:59:35;;;;;;;1.58;0.63;;;12.50;99.90;;;;;;4953045;28;20098;-79
2023/06/01 07:02:21;;;;;;;3.75;1.10;;;12.60;99.90;;;;;;4953205;28;20495;-79
2023/06/01 07:05:08;;;;;;;6.18;1.27;;;12.60;99.90;;;;;;4952113;29;20059;-78
2023/06/01 07:07:54;;;;;;;3.33;1.00;;;12.70;99.90;;;;;;4935680;28;20455;-78
2023/06/01 07:10:41;;;;;;;8.70;1.23;;;12.70;99.90;;;;;;4952418;29;20134;-79
2023/06/01 07:13:27;;;;;;;7.32;1.77;;;12.70;99.90;;;;;;4935558;29;20066;-79
2023/06/01 07:16:13;;;;;;;7.95;1.42;;;12.60;99.90;;;;;;4953347;28;20055;-77
2023/06/01 07:19:00;;;;;;;7.47;1.58;;;12.60;99.90;;;;;;4952425;28;20058;-77
2023/06/01 07:21:46;;;;;;;12.70;2.55;;;12.60;99.90;;;;;;4952621;28;20066;-78
2023/06/01 07:24:32;;;;;;;8.90;2.38;;;12.60;99.90;;;;;;4937041;28;20098;-77
2023/06/01 07:27:20;;;;;;;6.75;2.67;;;12.60;99.90;;;;;;4936106;29;20101;-78
2023/06/01 07:30:08;;;;;;;9.38;2.45;;;12.50;99.90;;;;;;4936135;28;20051;-78
2023/06/01 07:32:55;;;;;;;7.10;2.35;;;12.60;99.90;;;;;;4935740;28;20117;-79
2023/06/01 07:35:41;;;;;;;12.15;2.80;;;12.60;99.90;;;;;;4951881;29;20047;-79
2023/06/01 07:38:28;;;;;;;8.93;2.72;;;12.50;99.90;;;;;;4952921;28;20044;-78
2023/06/01 07:41:14;;;;;;;11.02;2.80;;;12.60;99.90;;;;;;4951221;28;20601;-77
2023/06/01 07:44:01;;;;;;;13.65;2.88;;;12.60;99.90;;;;;;4938718;28;20158;-78
2023/06/01 07:46:48;;;;;;;8.80;2.50;;;12.60;99.90;;;;;;4935300;28;20059;-79
2023/06/01 07:49:37;;;;;;;9.85;2.45;;;12.60;99.90;;;;;;4951931;29;20099;-78
2023/06/01 07:52:24;;;;;;;15.15;3.03;;;12.60;99.90;;;;;;4935558;29;20043;-79
2023/06/01 07:55:10;;;;;;;9.43;2.33;;;12.60;99.90;;;;;;4921808;29;20058;-78
2023/06/01 07:57:56;;;;;;;9.80;2.63;;;12.60;99.90;;;;;;4950449;28;20059;-79
2023/06/01 08:00:44;;;;;;;8.23;2.40;;;12.70;99.90;;;;;;4956138;29;20043;-78
2023/06/01 08:03:33;;;;;;;10.02;2.17;;;12.80;99.90;;;;;;4955146;28;20380;-79
2023/06/01 08:06:23;;;;;;;13.25;3.47;;;12.90;99.90;;;;;;4956984;28;20191;-78
2023/06/01 08:09:10;;;;;;;11.38;2.50;;;12.90;99.90;;;;;;4954480;29;20055;-78
2023/06/01 08:11:56;;;;;;;13.50;3.05;;;13.00;99.90;;;;;;4925851;29;20051;-78
2023/06/01 08:14:45;;;;;;;15.38;2.92;;;13.00;99.90;;;;;;4956389;28;20110;-78
2023/06/01 08:17:31;;;;;;;17.05;3.42;;;12.90;99.90;;;;;;4938399;29;20051;-78
2023/06/01 08:20:25;;;;;;;9.60;2.25;;;13.00;99.90;;;;;;4954213;28;20443;-78
2023/06/01 08:23:13;;;;;;;11.60;2.80;;;13.00;99.90;;;;;;4938709;29;20066;-79
2023/06/01 08:26:00;;;;;;;11.90;3.22;;;13.00;99.90;;;;;;4956110;28;20107;-79
2023/06/01 08:28:52;;;;;;;11.88;2.72;;;13.00;99.90;;;;;;4955624;28;20423;-79
2023/06/01 08:31:39;;;;;;;13.05;2.63;;;13.10;99.90;;;;;;4955952;28;20054;-79
2023/06/01 08:34:25;;;;;;;13.10;2.05;;;13.10;99.90;;;;;;4956229;28;20458;-78
2023/06/01 08:37:13;;;;;;;8.05;2.28;;;13.10;99.90;;;;;;4955306;28;20500;-78
2023/06/01 08:39:59;;;;;;;16.55;2.88;;;13.00;99.90;;;;;;4954197;29;20051;-78
2023/06/01 08:43:12;;;;;;;12.85;3.25;;;13.00;99.90;;;;;;4953542;29;20142;-78
2023/06/01 08:46:00;;;;;;;9.60;2.40;;;12.90;99.90;;;;;;4955216;28;20105;-78
2023/06/01 08:48:52;;;;;;;12.00;2.15;;;13.00;99.90;;;;;;4925069;29;20055;-78
2023/06/01 08:51:41;;;;;;;12.45;2.13;;;13.10;99.90;;;;;;4955613;28;20183;-78
2023/06/01 08:54:30;;;;;;;10.00;2.33;;;13.10;99.90;;;;;;4955209;28;20510;-77
2023/06/01 08:57:17;;;;;;;10.70;2.63;;;13.20;99.90;;;;;;4954432;29;20055;-78
2023/06/01 09:00:05;;;;;;;11.15;2.58;;;13.30;99.90;;;;;;4954336;28;20055;-77
2023/06/01 09:02:52;;;;;;;8.95;3.90;;;13.40;99.90;;;;;;4938986;28;20138;-78
2023/06/01 09:05:39;;;;;;;11.98;2.47;;;13.40;99.90;;;;;;4954944;29;20043;-78
2023/06/01 09:08:25;;;;;;;14.48;2.70;;;13.40;99.90;;;;;;4955163;28;20526;-78
2023/06/01 09:11:11;;;;;;;17.15;2.60;;;13.40;99.90;;;;;;4940436;29;20062;-79
2023/06/01 09:13:57;;;;;;;8.65;1.98;;;13.50;99.90;;;;;;4955274;28;20479;-78
2023/06/01 09:16:44;;;;;;;10.77;2.10;;;13.50;99.90;;;;;;4939522;29;20507;-79
2023/06/01 09:19:45;;;;;;;10.18;2.13;;;13.50;99.90;;;;;;4939674;28;20062;-79
2023/06/01 09:22:43;;;;;;;10.35;2.47;;;13.50;99.90;;;;;;4954042;28;20055;-77
2023/06/01 09:25:31;;;;;;;12.70;2.50;;;13.50;99.90;;;;;;4953925;29;20503;-79
2023/06/01 09:28:17;;;;;;;16.02;2.92;;;13.60;99.90;;;;;;4955228;28;20055;-78
2023/06/01 09:31:03;;;;;;;9.75;2.72;;;13.70;99.90;;;;;;4954678;28;20113;-79
2023/06/01 09:34:02;;;;;;;8.95;2.40;;;13.80;99.90;;;;;;4954841;28;20047;-79
2023/06/01 09:36:54;;;;;;;7.50;2.17;;;13.90;99.90;;;;;;4953445;28;20381;-79
2023/06/01 09:39:40;;;;;;;13.65;2.33;;;13.90;99.90;;;;;;4952924;29;20090;-78
2023/06/01 09:42:36;;;;;;;10.65;2.50;;;13.90;99.90;;;;;;4953411;28;20055;-79
2023/06/01 09:45:23;;;;;;;13.70;3.20;;;13.90;99.90;;;;;;4952672;29;20054;-79
2023/06/01 09:48:18;;;;;;;17.60;2.65;;;13.90;99.90;;;;;;4923796;29;20051;-79
2023/06/01 09:51:04;;;;;;;11.13;2.03;;;13.80;99.90;;;;;;4953124;29;20574;-78
2023/06/01 09:53:51;;;;;;;8.45;2.10;;;13.80;99.90;;;;;;4954715;28;20511;-79
2023/06/01 09:56:44;;;;;;;9.63;2.13;;;13.90;99.90;;;;;;4955676;28;20055;-80
2023/06/01 09:59:43;;;;;;;9.50;2.30;;;13.90;99.90;;;;;;4937344;29;20055;-79
2023/06/01 10:02:33;;;;;;;6.95;1.77;;;14.10;99.90;;;;;;4940126;29;20051;-79
2023/06/01 10:05:20;;;;;;;12.52;2.42;;;14.10;99.90;;;;;;4954521;28;20055;-80
2023/06/01 10:08:06;;;;;;;9.18;1.98;;;14.20;99.90;;;;;;4923559;29;20047;-80
2023/06/01 10:10:53;;;;;;;5.25;2.15;;;14.10;99.90;;;;;;4954203;28;20399;-78
2023/06/01 10:13:40;;;;;;;11.35;2.05;;;14.20;99.90;;;;;;4953407;29;20055;-79
2023/06/01 10:16:26;;;;;;;11.00;2.35;;;14.10;99.90;;;;;;4952330;28;20051;-79
2023/06/01 10:19:12;;;;;;;11.23;3.22;;;14.20;99.90;;;;;;4939884;28;20502;-79
2023/06/01 10:21:59;;;;;;;7.45;2.30;;;14.30;99.90;;;;;;4952279;28;20415;-79
2023/06/01 10:24:45;;;;;;;22.95;2.97;;;14.20;99.90;;;;;;4937754;28;20117;-79
2023/06/01 10:27:56;;;;;;;11.82;2.50;;;14.20;99.90;;;;;;4951740;29;20055;-78
2023/06/01 10:30:42;;;;;;;10.20;2.67;;;14.20;99.90;;;;;;4951560;29;20062;-78
2023/06/01 10:33:53;;;;;;;14.55;3.50;;;14.20;99.90;;;;;;4937535;28;20055;-78
2023/06/01 10:36:51;;;;;;;14.27;3.30;;;14.30;99.90;;;;;;4953625;29;20055;-78
2023/06/01 10:39:39;;;;;;;7.85;2.92;;;14.40;99.90;;;;;;4953068;29;20055;-78
2023/06/01 10:42:36;;;;;;;7.68;2.20;;;14.60;99.90;;;;;;4953556;28;20198;-78
2023/06/01 10:45:40;;;;;;;11.93;2.70;;;14.50;99.90;;;;;;4953123;29;20053;-78
2023/06/01 10:48:57;;;;;;;14.45;2.95;;;14.50;99.90;;;;;;4953610;28;20098;-79
2023/06/01 10:51:43;;;;;;;12.75;2.25;;;14.60;99.90;;;;;;4949258;29;20137;-78
2023/06/01 10:54:30;;;;;;;9.40;2.20;;;14.80;99.90;;;;;;4952926;28;20098;-79
2023/06/01 10:57:24;;;;;;;7.68;2.25;;;14.70;99.90;;;;;;4952696;29;20495;-76
2023/06/01 11:00:14;;;;;;;10.05;2.10;;;14.70;99.90;;;;;;4922224;29;20055;-77
2023/06/01 11:03:05;;;;;;;11.25;2.80;;;14.70;99.90;;;;;;4937637;29;20047;-79
2023/06/01 11:05:52;;;;;;;15.02;2.35;;;14.80;99.90;;;;;;4922331;29;20120;-79
2023/06/01 11:08:38;;;;;;;6.80;1.92;;;14.70;99.90;;;;;;4952467;29;20043;-79
2023/06/01 11:11:55;;;;;;;12.85;2.75;;;14.70;99.90;;;;;;4953073;29;20057;-79
2023/06/01 11:15:07;;;;;;;9.25;1.90;;;14.70;99.90;;;;;;4953284;28;20054;-79
2023/06/01 11:17:54;;;;;;;9.90;2.55;;;14.60;99.90;;;;;;4938801;28;20059;-78
2023/06/01 11:20:41;;;;;;;12.40;2.63;;;14.60;99.90;;;;;;4952283;28;20051;-78
2023/06/01 11:23:27;;;;;;;12.75;3.15;;;14.50;99.90;;;;;;4953348;28;20051;-77
2023/06/01 11:26:15;;;;;;;6.80;2.10;;;14.50;99.90;;;;;;4953294;28;20046;-78
2023/06/01 11:29:16;;;;;;;13.68;2.35;;;14.50;99.90;;;;;;4934843;29;20063;-79
2023/06/01 11:32:05;;;;;;;11.65;3.45;;;14.50;99.90;;;;;;4953762;28;20090;-79
2023/06/01 11:34:53;;;;;;;6.22;1.88;;;14.50;99.90;;;;;;4952387;28;20408;-78
2023/06/01 11:37:40;;;;;;;8.70;2.20;;;14.70;99.90;;;;;;4952446;28;20146;-77
2023/06/01 11:40:26;;;;;;;4.25;1.60;;;14.80;99.90;;;;;;4952482;28;20050;-77
2023/06/01 11:43:12;;;;;;;9.93;2.10;;;14.80;99.90;;;;;;4952293;28;20062;-77
2023/06/01 11:46:06;;;;;;;9.40;2.00;;;14.80;99.90;;;;;;4935935;29;20208;-78
2023/06/01 11:49:08;;;;;;;9.25;2.10;;;14.70;99.90;;;;;;4952984;28;20043;-77
2023/06/01 11:51:56;;;;;;;11.38;2.45;;;14.60;99.90;;;;;;4952793;28;20145;-77
2023/06/01 11:54:42;;;;;;;10.95;2.22;;;14.50;99.90;;;;;;4952043;29;20055;-78
2023/06/01 11:57:29;;;;;;;10.52;2.08;;;14.40;99.90;;;;;;4952777;28;20087;-78
2023/06/01 12:00:15;;;;;;;11.82;2.97;;;14.40;99.90;;;;;;4934485;29;20078;-77
2023/06/01 12:03:06;;;;;;;9.75;2.55;;;14.40;99.90;;;;;;4951733;29;20635;-78
2023/06/01 12:05:53;;;;;;;11.57;2.95;;;14.40;99.90;;;;;;4951189;28;20047;-78
2023/06/01 12:08:39;;;;;;;12.70;2.90;;;14.50;99.90;;;;;;4952351;28;20504;-78
2023/06/01 12:11:27;;;;;;;9.98;2.50;;;14.60;99.90;;;;;;4935780;29;20451;-77
2023/06/01 12:14:14;;;;;;;12.70;2.70;;;14.70;99.90;;;;;;4952582;28;20047;-77
2023/06/01 12:17:04;;;;;;;13.45;3.33;;;14.80;99.90;;;;;;4950289;29;20063;-77
2023/06/01 12:19:51;;;;;;;8.90;2.53;;;14.80;99.90;;;;;;4921494;29;20095;-79
2023/06/01 12:22:37;;;;;;;12.52;2.65;;;14.90;99.90;;;;;;4938116;29;20067;-78
2023/06/01 12:25:24;;;;;;;9.20;2.10;;;14.90;99.90;;;;;;4935212;28;20055;-78
2023/06/01 12:28:10;;;;;;;11.18;2.28;;;15.10;99.90;;;;;;4934862;29;20574;-80
2023/06/01 12:31:23;;;;;;;6.20;1.75;;;15.20;99.90;;;;;;4952414;28;20055;-79
2023/06/01 12:34:16;;;;;;;6.10;1.63;;;15.20;99.90;;;;;;4952597;28;20058;-78
2023/06/01 12:37:12;;;;;;;9.52;1.98;;;15.30;99.90;;;;;;4950289;29;20048;-79
2023/06/01 12:40:01;;;;;;;23.60;2.53;;;15.50;99.90;;;;;;4952084;29;20062;-79
2023/06/01 12:42:48;;;;;;;8.35;2.10;;;15.50;99.90;;;;;;4935267;29;20056;-78
2023/06/01 12:45:40;;;;;;;5.75;1.65;;;15.50;99.90;;;;;;4953680;28;20117;-79
2023/06/01 12:48:33;;;;;;;8.35;2.10;;;15.50;99.90;;;;;;4957146;29;20821;-79
2023/06/01 12:51:21;;;;;;;9.85;2.83;;;15.50;99.90;;;;;;4940910;29;20051;-79
2023/06/01 12:54:07;;;;;;;10.10;2.20;;;15.50;99.90;;;;;;4955129;28;20058;-79
2023/06/01 12:56:53;;;;;;;7.70;1.60;;;15.50;99.90;;;;;;4955719;28;20106;-78
2023/06/01 12:59:39;;;;;;;11.10;2.10;;;15.50;99.90;;;;;;4954452;28;20059;-78
2023/06/01 13:02:25;;;;;;;16.15;2.10;;;15.50;99.90;;;;;;4955365;29;20043;-79
2023/06/01 13:05:12;;;;;;;9.68;1.90;;;15.50;99.90;;;;;;4941161;29;20082;-78
2023/06/01 13:07:59;;;;;;;9.35;2.03;;;15.50;99.90;;;;;;4941108;29;20098;-79
2023/06/01 13:10:46;;;;;;;9.80;2.10;;;15.40;99.90;;;;;;4938481;28;20128;-79
2023/06/01 13:13:32;;;;;;;8.45;1.48;;;15.30;99.90;;;;;;4955031;28;20051;-79
2023/06/01 13:16:18;;;;;;;7.97;1.85;;;15.20;99.90;;;;;;4954495;29;20403;-78
2023/06/01 13:19:04;;;;;;;5.25;1.42;;;15.10;99.90;;;;;;4937945;28;20063;-79
2023/06/01 13:21:50;;;;;;;8.48;1.73;;;15.10;99.90;;;;;;4953463;28;20052;-79
2023/06/01 13:24:36;;;;;;;10.40;1.70;;;15.10;99.90;;;;;;4953823;28;20094;-78
2023/06/01 13:27:22;;;;;;;5.57;1.73;;;15.00;99.90;;;;;;4955532;28;20051;-79
2023/06/01 13:30:09;;;;;;;8.82;1.50;;;14.90;99.90;;;;;;4954379;29;20050;-79
2023/06/01 13:32:56;;;;;;;8.23;1.45;;;14.80;99.90;;;;;;4953471;28;20047;-78
2023/06/01 13:35:43;;;;;;;8.60;1.40;;;14.70;99.90;;;;;;4954471;28;20047;-79
2023/06/01 13:38:31;;;;;;;3.95;1.30;;;14.70;99.90;;;;;;4939987;29;20407;-79
2023/06/01 13:41:17;;;;;;;12.90;2.33;;;14.70;99.90;;;;;;4937495;28;20089;-78
2023/06/01 13:44:03;;;;;;;6.25;1.40;;;14.60;99.90;;;;;;4954015;28;20743;-79
2023/06/01 13:46:49;;;;;;;5.13;1.30;;;14.60;99.90;;;;;;4952361;29;20062;-79
2023/06/01 13:49:35;;;;;;;8.35;1.65;;;14.70;99.90;;;;;;4937647;29;20067;-79
2023/06/01 13:52:25;;;;;;;10.45;1.38;;;14.90;99.90;;;;;;4937849;28;20075;-79
2023/06/01 13:55:12;;;;;;;9.27;1.77;;;15.00;99.90;;;;;;4924425;29;20121;-79
2023/06/01 13:57:58;;;;;;;9.65;1.30;;;15.20;99.90;;;;;;4954046;28;20055;-79
2023/06/01 14:00:44;;;;;;;6.60;1.20;;;15.30;99.90;;;;;;4954841;28;20055;-79
2023/06/01 14:03:30;;;;;;;5.60;1.10;;;15.30;99.90;;;;;;4953899;28;20047;-79
2023/06/01 14:06:17;;;;;;;8.70;1.25;;;15.40;99.90;;;;;;4937512;29;20141;-79
2023/06/01 14:09:03;;;;;;;8.93;1.42;;;15.80;99.90;;;;;;4953769;28;20055;-79
2023/06/01 14:11:50;;;;;;;8.15;1.33;;;16.00;99.90;;;;;;4951424;29;20522;-79
2023/06/01 14:14:36;;;;;;;8.10;1.17;;;16.00;99.90;;;;;;4953114;29;20051;-78
2023/06/01 14:17:23;;;;;;;12.30;1.25;;;15.90;99.90;;;;;;4940481;29;20126;-79
2023/06/01 14:20:10;;;;;;;8.65;2.10;;;15.80;99.90;;;;;;4937018;28;20062;-79
2023/06/01 14:22:57;;;;;;;4.93;0.82;;;15.80;99.90;;;;;;4954565;28;20146;-79
2023/06/01 14:25:44;;;;;;;7.00;1.42;;;15.50;99.90;;;;;;4954679;28;20123;-79
2023/06/01 14:28:31;;;;;;;7.63;1.40;;;15.50;99.90;;;;;;4954269;28;20403;-79
2023/06/01 14:31:19;;;;;;;6.35;1.35;;;15.40;99.90;;;;;;4952966;29;20141;-79